sensor_id;sensor_type;location;lat;lon;timestamp;pressure;altitude;pressure_sealevel;temperature;humidity
49297;BME280;35163;48.878;18.040;2022-07-11T00:00:21;98657.63;;;13.65;69.75
49297;BME280;35163;48.878;18.040;2022-07-11T00:02:49;98657.16;;;13.55;70.49
49297;BME280;35163;48.878;18.040;2022-07-11T00:05:16;98676.97;;;13.58;70.25
49297;BME280;35163;48.878;18.040;2022-07-11T00:07:42;98665.00;;;13.54;70.40
49297;BME280;35163;48.878;18.040;2022-07-11T00:10:09;98673.59;;;13.56;70.31
49297;BME280;35163;48.878;18.040;2022-07-11T00:12:36;98678.91;;;13.53;70.74
49297;BME280;35163;48.878;18.040;2022-07-11T00:15:03;98675.50;;;13.51;70.42
49297;BME280;35163;48.878;18.040;2022-07-11T00:17:30;98680.53;;;13.55;69.45
49297;BME280;35163;48.878;18.040;2022-07-11T00:19:57;98676.25;;;13.54;70.63
49297;BME280;35163;48.878;18.040;2022-07-11T00:22:25;98679.28;;;13.42;71.65
49297;BME280;35163;48.878;18.040;2022-07-11T00:24:51;98673.31;;;13.40;72.25
49297;BME280;35163;48.878;18.040;2022-07-11T00:27:18;98677.84;;;13.34;72.16
49297;BME280;35163;48.878;18.040;2022-07-11T00:29:45;98669.22;;;13.34;72.30
49297;BME280;35163;48.878;18.040;2022-07-11T00:32:12;98669.91;;;13.37;71.98
49297;BME280;35163;48.878;18.040;2022-07-11T00:34:39;98676.03;;;13.36;72.22
49297;BME280;35163;48.878;18.040;2022-07-11T00:37:05;98679.41;;;13.39;72.55
49297;BME280;35163;48.878;18.040;2022-07-11T00:39:32;98674.41;;;13.34;72.30
49297;BME280;35163;48.878;18.040;2022-07-11T00:41:59;98685.75;;;13.31;72.01
49297;BME280;35163;48.878;18.040;2022-07-11T00:44:25;98679.88;;;13.26;72.53
49297;BME280;35163;48.878;18.040;2022-07-11T00:46:52;98682.06;;;13.15;73.24
49297;BME280;35163;48.878;18.040;2022-07-11T00:49:20;98678.53;;;13.16;73.01
49297;BME280;35163;48.878;18.040;2022-07-11T00:51:48;98679.53;;;13.13;73.40
49297;BME280;35163;48.878;18.040;2022-07-11T00:54:16;98674.47;;;13.08;73.54
49297;BME280;35163;48.878;18.040;2022-07-11T00:56:43;98669.41;;;13.05;73.68
49297;BME280;35163;48.878;18.040;2022-07-11T00:59:10;98674.16;;;12.94;74.69
49297;BME280;35163;48.878;18.040;2022-07-11T01:01:38;98672.25;;;12.75;75.34
49297;BME280;35163;48.878;18.040;2022-07-11T01:04:04;98676.88;;;12.67;75.73
49297;BME280;35163;48.878;18.040;2022-07-11T01:06:32;98674.47;;;12.60;76.04
49297;BME280;35163;48.878;18.040;2022-07-11T01:08:58;98681.31;;;12.63;75.43
49297;BME280;35163;48.878;18.040;2022-07-11T01:11:26;98679.47;;;12.67;75.03
49297;BME280;35163;48.878;18.040;2022-07-11T01:13:53;98677.88;;;12.62;74.68
49297;BME280;35163;48.878;18.040;2022-07-11T01:16:21;98678.44;;;12.71;75.07
49297;BME280;35163;48.878;18.040;2022-07-11T01:18:53;98677.97;;;12.59;75.17
49297;BME280;35163;48.878;18.040;2022-07-11T01:23:52;98677.06;;;12.60;75.02
49297;BME280;35163;48.878;18.040;2022-07-11T01:26:20;98673.31;;;12.69;74.75
49297;BME280;35163;48.878;18.040;2022-07-11T01:28:47;98676.06;;;12.64;75.18
49297;BME280;35163;48.878;18.040;2022-07-11T01:31:14;98670.78;;;12.68;74.49
49297;BME280;35163;48.878;18.040;2022-07-11T01:33:41;98670.44;;;12.77;74.75
49297;BME280;35163;48.878;18.040;2022-07-11T01:36:09;98668.53;;;12.82;74.04
49297;BME280;35163;48.878;18.040;2022-07-11T01:38:35;98668.25;;;12.90;73.66
49297;BME280;35163;48.878;18.040;2022-07-11T01:41:03;98669.66;;;12.99;73.63
49297;BME280;35163;48.878;18.040;2022-07-11T01:43:29;98665.63;;;12.90;73.15
49297;BME280;35163;48.878;18.040;2022-07-11T01:45:56;98678.69;;;12.88;74.13
49297;BME280;35163;48.878;18.040;2022-07-11T01:48:23;98673.59;;;12.85;76.34
49297;BME280;35163;48.878;18.040;2022-07-11T01:50:51;98677.16;;;12.83;75.59
49297;BME280;35163;48.878;18.040;2022-07-11T01:53:18;98675.63;;;12.77;78.10
49297;BME280;35163;48.878;18.040;2022-07-11T01:55:44;98674.03;;;12.73;77.10
49297;BME280;35163;48.878;18.040;2022-07-11T01:58:31;98670.56;;;12.74;78.15
49297;BME280;35163;48.878;18.040;2022-07-11T02:00:58;98667.19;;;12.72;79.19
49297;BME280;35163;48.878;18.040;2022-07-11T02:03:25;98669.88;;;12.69;78.66
49297;BME280;35163;48.878;18.040;2022-07-11T02:05:52;98666.63;;;12.87;77.25
49297;BME280;35163;48.878;18.040;2022-07-11T02:08:18;98668.28;;;12.88;77.86
49297;BME280;35163;48.878;18.040;2022-07-11T02:10:47;98660.50;;;12.88;77.04
49297;BME280;35163;48.878;18.040;2022-07-11T02:13:16;98659.16;;;13.02;77.96
49297;BME280;35163;48.878;18.040;2022-07-11T02:15:45;98664.56;;;13.20;75.87
49297;BME280;35163;48.878;18.040;2022-07-11T02:18:12;98666.84;;;13.28;74.72
49297;BME280;35163;48.878;18.040;2022-07-11T02:20:41;98664.97;;;13.31;73.79
49297;BME280;35163;48.878;18.040;2022-07-11T02:23:08;98660.63;;;13.32;74.32
49297;BME280;35163;48.878;18.040;2022-07-11T02:25:35;98670.84;;;13.36;74.22
49297;BME280;35163;48.878;18.040;2022-07-11T02:28:06;98662.13;;;13.37;74.02
49297;BME280;35163;48.878;18.040;2022-07-11T02:30:36;98664.38;;;13.24;75.01
49297;BME280;35163;48.878;18.040;2022-07-11T02:33:04;98671.97;;;13.29;74.40
49297;BME280;35163;48.878;18.040;2022-07-11T02:35:34;98676.16;;;13.33;74.08
49297;BME280;35163;48.878;18.040;2022-07-11T02:38:02;98667.38;;;13.36;73.28
49297;BME280;35163;48.878;18.040;2022-07-11T02:40:29;98675.84;;;13.41;73.15
49297;BME280;35163;48.878;18.040;2022-07-11T02:42:56;98677.06;;;13.32;73.86
49297;BME280;35163;48.878;18.040;2022-07-11T02:45:22;98671.63;;;13.39;73.23
49297;BME280;35163;48.878;18.040;2022-07-11T02:47:49;98669.38;;;13.29;73.55
49297;BME280;35163;48.878;18.040;2022-07-11T02:50:16;98668.88;;;13.19;73.60
49297;BME280;35163;48.878;18.040;2022-07-11T02:52:43;98668.63;;;13.25;73.29
49297;BME280;35163;48.878;18.040;2022-07-11T02:55:11;98668.69;;;13.24;73.21
49297;BME280;35163;48.878;18.040;2022-07-11T02:57:38;98668.22;;;13.14;74.71
49297;BME280;35163;48.878;18.040;2022-07-11T03:00:09;98664.09;;;13.08;75.23
49297;BME280;35163;48.878;18.040;2022-07-11T03:02:36;98660.13;;;12.99;75.61
49297;BME280;35163;48.878;18.040;2022-07-11T03:05:03;98665.88;;;13.08;75.53
49297;BME280;35163;48.878;18.040;2022-07-11T03:07:30;98658.81;;;13.11;75.50
49297;BME280;35163;48.878;18.040;2022-07-11T03:09:57;98652.88;;;13.08;75.67
49297;BME280;35163;48.878;18.040;2022-07-11T03:12:23;98663.09;;;13.12;75.47
49297;BME280;35163;48.878;18.040;2022-07-11T03:14:50;98663.94;;;13.13;74.81
49297;BME280;35163;48.878;18.040;2022-07-11T03:17:18;98660.78;;;13.05;75.75
49297;BME280;35163;48.878;18.040;2022-07-11T03:19:45;98667.16;;;13.20;76.02
49297;BME280;35163;48.878;18.040;2022-07-11T03:22:15;98661.72;;;13.26;75.39
49297;BME280;35163;48.878;18.040;2022-07-11T03:24:42;98664.50;;;13.21;76.34
49297;BME280;35163;48.878;18.040;2022-07-11T03:27:10;98665.34;;;13.22;75.97
49297;BME280;35163;48.878;18.040;2022-07-11T03:29:38;98667.88;;;13.23;75.72
49297;BME280;35163;48.878;18.040;2022-07-11T03:32:05;98666.16;;;13.22;75.02
49297;BME280;35163;48.878;18.040;2022-07-11T03:34:32;98664.63;;;13.18;75.18
49297;BME280;35163;48.878;18.040;2022-07-11T03:37:00;98664.81;;;13.12;74.48
49297;BME280;35163;48.878;18.040;2022-07-11T03:39:27;98658.19;;;13.05;74.93
49297;BME280;35163;48.878;18.040;2022-07-11T03:41:54;98665.94;;;13.06;74.86
49297;BME280;35163;48.878;18.040;2022-07-11T03:44:21;98655.75;;;13.00;74.96
49297;BME280;35163;48.878;18.040;2022-07-11T03:46:47;98665.94;;;13.06;74.86
49297;BME280;35163;48.878;18.040;2022-07-11T03:49:14;98667.47;;;13.10;74.45
49297;BME280;35163;48.878;18.040;2022-07-11T03:51:41;98666.53;;;13.13;74.59
49297;BME280;35163;48.878;18.040;2022-07-11T03:54:08;98658.38;;;13.22;74.41
49297;BME280;35163;48.878;18.040;2022-07-11T03:56:35;98667.03;;;13.23;74.33
49297;BME280;35163;48.878;18.040;2022-07-11T03:59:01;98672.94;;;13.27;74.59
49297;BME280;35163;48.878;18.040;2022-07-11T04:01:28;98674.75;;;13.24;74.92
49297;BME280;35163;48.878;18.040;2022-07-11T04:03:55;98673.69;;;13.30;75.16
49297;BME280;35163;48.878;18.040;2022-07-11T04:06:22;98672.03;;;13.50;74.39
49297;BME280;35163;48.878;18.040;2022-07-11T04:08:48;98673.13;;;13.67;73.74
49297;BME280;35163;48.878;18.040;2022-07-11T04:11:15;98672.66;;;13.79;72.96
49297;BME280;35163;48.878;18.040;2022-07-11T04:13:42;98670.41;;;13.92;73.16
49297;BME280;35163;48.878;18.040;2022-07-11T04:16:09;98671.00;;;13.99;70.92
49297;BME280;35163;48.878;18.040;2022-07-11T04:18:37;98675.66;;;14.12;70.52
49297;BME280;35163;48.878;18.040;2022-07-11T04:21:04;98666.97;;;14.13;70.55
49297;BME280;35163;48.878;18.040;2022-07-11T04:23:34;98668.38;;;14.20;70.07
49297;BME280;35163;48.878;18.040;2022-07-11T04:26:01;98670.53;;;14.31;69.67
49297;BME280;35163;48.878;18.040;2022-07-11T04:28:28;98659.69;;;14.42;68.96
49297;BME280;35163;48.878;18.040;2022-07-11T04:30:55;98670.03;;;14.43;68.46
49297;BME280;35163;48.878;18.040;2022-07-11T04:33:21;98666.25;;;14.51;68.19
49297;BME280;35163;48.878;18.040;2022-07-11T04:35:48;98665.91;;;14.58;68.08
49297;BME280;35163;48.878;18.040;2022-07-11T04:38:15;98665.53;;;14.66;67.79
49297;BME280;35163;48.878;18.040;2022-07-11T04:40:43;98675.41;;;14.79;68.95
49297;BME280;35163;48.878;18.040;2022-07-11T04:43:09;98668.28;;;14.84;69.22
49297;BME280;35163;48.878;18.040;2022-07-11T04:45:36;98675.84;;;14.69;69.26
49297;BME280;35163;48.878;18.040;2022-07-11T04:48:03;98683.66;;;14.69;68.69
49297;BME280;35163;48.878;18.040;2022-07-11T04:50:33;98682.28;;;14.61;69.18
49297;BME280;35163;48.878;18.040;2022-07-11T04:52:59;98686.72;;;14.38;70.03
49297;BME280;35163;48.878;18.040;2022-07-11T04:55:26;98684.47;;;14.30;70.30
49297;BME280;35163;48.878;18.040;2022-07-11T04:57:53;98695.97;;;14.24;70.09
49297;BME280;35163;48.878;18.040;2022-07-11T05:00:19;98700.81;;;14.53;69.02
49297;BME280;35163;48.878;18.040;2022-07-11T05:02:46;98693.91;;;14.93;68.33
49297;BME280;35163;48.878;18.040;2022-07-11T05:05:13;98696.16;;;15.95;63.54
49297;BME280;35163;48.878;18.040;2022-07-11T05:07:40;98702.69;;;16.21;61.05
49297;BME280;35163;48.878;18.040;2022-07-11T05:10:07;98704.91;;;17.63;56.53
49297;BME280;35163;48.878;18.040;2022-07-11T05:12:33;98706.56;;;18.56;52.01
49297;BME280;35163;48.878;18.040;2022-07-11T05:15:00;98708.09;;;19.47;48.95
49297;BME280;35163;48.878;18.040;2022-07-11T05:17:28;98713.56;;;18.41;52.00
49297;BME280;35163;48.878;18.040;2022-07-11T05:19:54;98713.25;;;17.70;54.22
49297;BME280;35163;48.878;18.040;2022-07-11T05:22:21;98717.09;;;16.98;56.93
49297;BME280;35163;48.878;18.040;2022-07-11T05:24:48;98724.47;;;16.89;56.91
49297;BME280;35163;48.878;18.040;2022-07-11T05:27:15;98720.94;;;17.07;57.17
49297;BME280;35163;48.878;18.040;2022-07-11T05:29:42;98719.06;;;16.76;57.80
49297;BME280;35163;48.878;18.040;2022-07-11T05:32:08;98715.53;;;17.11;57.16
49297;BME280;35163;48.878;18.040;2022-07-11T05:34:36;98713.44;;;17.18;54.53
49297;BME280;35163;48.878;18.040;2022-07-11T05:37:03;98726.03;;;17.91;53.33
49297;BME280;35163;48.878;18.040;2022-07-11T05:39:30;98712.66;;;19.15;48.03
49297;BME280;35163;48.878;18.040;2022-07-11T05:41:56;98722.75;;;20.45;44.86
49297;BME280;35163;48.878;18.040;2022-07-11T05:44:23;98722.53;;;20.87;43.35
49297;BME280;35163;48.878;18.040;2022-07-11T05:46:50;98722.00;;;19.89;44.86
49297;BME280;35163;48.878;18.040;2022-07-11T05:49:16;98726.16;;;19.79;45.13
49297;BME280;35163;48.878;18.040;2022-07-11T05:51:43;98722.69;;;20.06;44.58
49297;BME280;35163;48.878;18.040;2022-07-11T05:54:10;98717.63;;;19.05;47.10
49297;BME280;35163;48.878;18.040;2022-07-11T05:56:36;98721.69;;;18.06;50.45
49297;BME280;35163;48.878;18.040;2022-07-11T05:59:03;98725.16;;;18.37;49.89
49297;BME280;35163;48.878;18.040;2022-07-11T06:01:30;98730.59;;;17.87;51.90
49297;BME280;35163;48.878;18.040;2022-07-11T06:04:06;98721.28;;;17.18;53.66
49297;BME280;35163;48.878;18.040;2022-07-11T06:06:32;98724.31;;;17.27;53.97
49297;BME280;35163;48.878;18.040;2022-07-11T06:08:59;98717.06;;;17.32;55.76
49297;BME280;35163;48.878;18.040;2022-07-11T06:11:26;98714.94;;;17.22;54.47
49297;BME280;35163;48.878;18.040;2022-07-11T06:13:53;98712.22;;;17.08;55.34
49297;BME280;35163;48.878;18.040;2022-07-11T06:16:25;98711.13;;;17.12;55.66
49297;BME280;35163;48.878;18.040;2022-07-11T06:18:52;98711.41;;;17.56;53.52
49297;BME280;35163;48.878;18.040;2022-07-11T06:21:19;98713.94;;;17.25;53.54
49297;BME280;35163;48.878;18.040;2022-07-11T06:23:49;98713.69;;;17.14;55.63
49297;BME280;35163;48.878;18.040;2022-07-11T06:26:16;98716.66;;;17.06;55.07
49297;BME280;35163;48.878;18.040;2022-07-11T06:28:44;98724.13;;;17.78;53.23
49297;BME280;35163;48.878;18.040;2022-07-11T06:31:10;98709.81;;;18.00;51.64
49297;BME280;35163;48.878;18.040;2022-07-11T06:33:38;98713.75;;;17.60;52.94
49297;BME280;35163;48.878;18.040;2022-07-11T06:36:05;98706.25;;;18.01;52.32
49297;BME280;35163;48.878;18.040;2022-07-11T06:38:33;98714.66;;;18.23;50.70
49297;BME280;35163;48.878;18.040;2022-07-11T06:41:01;98714.75;;;17.74;50.91
49297;BME280;35163;48.878;18.040;2022-07-11T06:43:28;98712.09;;;17.59;53.20
49297;BME280;35163;48.878;18.040;2022-07-11T06:45:56;98708.03;;;17.70;52.10
49297;BME280;35163;48.878;18.040;2022-07-11T06:48:22;98705.59;;;17.97;52.12
49297;BME280;35163;48.878;18.040;2022-07-11T06:50:49;98706.34;;;17.53;52.56
49297;BME280;35163;48.878;18.040;2022-07-11T06:53:16;98709.84;;;17.03;54.54
49297;BME280;35163;48.878;18.040;2022-07-11T06:55:43;98706.00;;;16.76;55.70
49297;BME280;35163;48.878;18.040;2022-07-11T06:58:10;98709.13;;;17.33;54.27
49297;BME280;35163;48.878;18.040;2022-07-11T07:00:50;98714.50;;;17.46;54.07
49297;BME280;35163;48.878;18.040;2022-07-11T07:03:16;98704.16;;;17.29;55.80
49297;BME280;35163;48.878;18.040;2022-07-11T07:05:46;98716.03;;;17.18;54.61
49297;BME280;35163;48.878;18.040;2022-07-11T07:08:17;98709.56;;;17.26;53.66
49297;BME280;35163;48.878;18.040;2022-07-11T07:10:44;98708.56;;;17.44;55.07
49297;BME280;35163;48.878;18.040;2022-07-11T07:13:10;98710.84;;;17.97;52.78
49297;BME280;35163;48.878;18.040;2022-07-11T07:15:37;98713.47;;;18.43;51.35
49297;BME280;35163;48.878;18.040;2022-07-11T07:18:04;98709.88;;;18.75;50.29
49297;BME280;35163;48.878;18.040;2022-07-11T07:20:30;98709.28;;;18.99;50.02
49297;BME280;35163;48.878;18.040;2022-07-11T07:22:58;98709.09;;;19.59;48.55
49297;BME280;35163;48.878;18.040;2022-07-11T07:25:25;98712.03;;;20.22;46.15
49297;BME280;35163;48.878;18.040;2022-07-11T07:27:52;98719.47;;;20.42;45.40
49297;BME280;35163;48.878;18.040;2022-07-11T07:30:19;98716.63;;;20.19;45.80
49297;BME280;35163;48.878;18.040;2022-07-11T07:32:45;98718.84;;;20.25;45.18
49297;BME280;35163;48.878;18.040;2022-07-11T07:35:12;98709.50;;;20.47;45.16
49297;BME280;35163;48.878;18.040;2022-07-11T07:37:39;98714.88;;;20.32;46.08
49297;BME280;35163;48.878;18.040;2022-07-11T07:40:06;98720.66;;;21.65;42.96
49297;BME280;35163;48.878;18.040;2022-07-11T07:42:32;98722.47;;;22.25;42.39
49297;BME280;35163;48.878;18.040;2022-07-11T07:44:59;98719.22;;;22.91;40.74
49297;BME280;35163;48.878;18.040;2022-07-11T07:47:26;98717.22;;;23.62;37.92
49297;BME280;35163;48.878;18.040;2022-07-11T07:49:54;98707.97;;;22.78;38.12
49297;BME280;35163;48.878;18.040;2022-07-11T07:52:21;98713.22;;;23.01;39.12
49297;BME280;35163;48.878;18.040;2022-07-11T07:54:48;98713.28;;;21.70;41.46
49297;BME280;35163;48.878;18.040;2022-07-11T07:57:15;98714.84;;;21.10;42.92
49297;BME280;35163;48.878;18.040;2022-07-11T07:59:42;98712.88;;;21.01;41.27
49297;BME280;35163;48.878;18.040;2022-07-11T08:02:08;98714.31;;;20.92;41.56
49297;BME280;35163;48.878;18.040;2022-07-11T08:04:35;98712.00;;;21.14;42.79
49297;BME280;35163;48.878;18.040;2022-07-11T08:07:03;98710.47;;;20.98;42.66
49297;BME280;35163;48.878;18.040;2022-07-11T08:09:30;98717.50;;;19.91;44.51
49297;BME280;35163;48.878;18.040;2022-07-11T08:11:56;98713.59;;;19.84;44.35
49297;BME280;35163;48.878;18.040;2022-07-11T08:14:23;98711.63;;;19.18;45.90
49297;BME280;35163;48.878;18.040;2022-07-11T08:16:50;98721.16;;;18.75;47.04
49297;BME280;35163;48.878;18.040;2022-07-11T08:19:17;98711.28;;;18.20;50.39
49297;BME280;35163;48.878;18.040;2022-07-11T08:21:44;98721.78;;;17.73;49.99
49297;BME280;35163;48.878;18.040;2022-07-11T08:24:10;98711.31;;;17.73;50.20
49297;BME280;35163;48.878;18.040;2022-07-11T08:26:37;98711.22;;;17.59;50.29
49297;BME280;35163;48.878;18.040;2022-07-11T08:29:04;98716.28;;;17.62;51.03
49297;BME280;35163;48.878;18.040;2022-07-11T08:31:31;98714.78;;;17.58;53.25
49297;BME280;35163;48.878;18.040;2022-07-11T08:34:00;98710.72;;;17.52;53.21
49297;BME280;35163;48.878;18.040;2022-07-11T08:36:27;98710.72;;;17.68;51.62
49297;BME280;35163;48.878;18.040;2022-07-11T08:38:57;98706.34;;;17.53;51.67
49297;BME280;35163;48.878;18.040;2022-07-11T08:41:23;98703.47;;;17.57;51.71
49297;BME280;35163;48.878;18.040;2022-07-11T08:43:50;98708.47;;;17.46;53.06
49297;BME280;35163;48.878;18.040;2022-07-11T08:46:19;98709.47;;;17.43;53.78
49297;BME280;35163;48.878;18.040;2022-07-11T08:48:46;98709.88;;;17.52;52.53
49297;BME280;35163;48.878;18.040;2022-07-11T08:51:14;98702.47;;;17.44;52.31
49297;BME280;35163;48.878;18.040;2022-07-11T08:53:43;98711.75;;;17.49;52.17
49297;BME280;35163;48.878;18.040;2022-07-11T08:56:12;98712.38;;;17.85;51.54
49297;BME280;35163;48.878;18.040;2022-07-11T08:58:46;98711.75;;;18.27;50.17
49297;BME280;35163;48.878;18.040;2022-07-11T09:01:33;98706.97;;;18.79;48.09
49297;BME280;35163;48.878;18.040;2022-07-11T09:04:01;98707.88;;;19.22;46.88
49297;BME280;35163;48.878;18.040;2022-07-11T09:06:28;98707.69;;;19.25;45.63
49297;BME280;35163;48.878;18.040;2022-07-11T09:08:59;98704.50;;;19.20;45.15
49297;BME280;35163;48.878;18.040;2022-07-11T09:11:27;98717.94;;;19.43;44.88
49297;BME280;35163;48.878;18.040;2022-07-11T09:13:54;98707.06;;;20.05;45.51
49297;BME280;35163;48.878;18.040;2022-07-11T09:16:20;98705.75;;;20.51;43.19
49297;BME280;35163;48.878;18.040;2022-07-11T09:18:53;98704.44;;;20.05;43.67
49297;BME280;35163;48.878;18.040;2022-07-11T09:21:19;98706.03;;;20.59;43.54
49297;BME280;35163;48.878;18.040;2022-07-11T09:24:04;98710.25;;;21.01;41.78
49297;BME280;35163;48.878;18.040;2022-07-11T09:26:51;98712.59;;;21.30;41.17
49297;BME280;35163;48.878;18.040;2022-07-11T09:29:22;98705.09;;;21.37;40.82
49297;BME280;35163;48.878;18.040;2022-07-11T09:31:52;98706.56;;;21.66;39.64
49297;BME280;35163;48.878;18.040;2022-07-11T09:34:22;98711.47;;;21.21;38.64
49297;BME280;35163;48.878;18.040;2022-07-11T09:36:55;98706.44;;;21.05;40.26
49297;BME280;35163;48.878;18.040;2022-07-11T09:39:24;98701.53;;;20.61;40.12
49297;BME280;35163;48.878;18.040;2022-07-11T09:41:52;98701.31;;;20.64;40.45
49297;BME280;35163;48.878;18.040;2022-07-11T09:46:48;98699.41;;;20.54;40.37
49297;BME280;35163;48.878;18.040;2022-07-11T09:49:29;98695.22;;;20.51;40.24
49297;BME280;35163;48.878;18.040;2022-07-11T09:52:12;98701.53;;;20.35;41.35
49297;BME280;35163;48.878;18.040;2022-07-11T09:54:56;98706.25;;;20.17;42.31
49297;BME280;35163;48.878;18.040;2022-07-11T09:57:35;98707.03;;;19.64;44.44
49297;BME280;35163;48.878;18.040;2022-07-11T10:00:10;98703.97;;;19.57;47.10
49297;BME280;35163;48.878;18.040;2022-07-11T10:02:38;98709.66;;;19.64;45.66
49297;BME280;35163;48.878;18.040;2022-07-11T10:05:06;98710.19;;;19.69;45.45
49297;BME280;35163;48.878;18.040;2022-07-11T10:07:33;98715.53;;;19.95;45.69
49297;BME280;35163;48.878;18.040;2022-07-11T10:10:01;98702.03;;;20.14;43.68
49297;BME280;35163;48.878;18.040;2022-07-11T10:12:28;98697.13;;;20.36;42.70
49297;BME280;35163;48.878;18.040;2022-07-11T10:14:57;98703.09;;;21.03;40.33
49297;BME280;35163;48.878;18.040;2022-07-11T10:18:18;98696.56;;;20.83;39.12
49297;BME280;35163;48.878;18.040;2022-07-11T10:20:33;98688.38;;;21.00;40.04
49297;BME280;35163;48.878;18.040;2022-07-11T10:28:25;98682.75;;;20.01;41.82
49297;BME280;35163;48.878;18.040;2022-07-11T10:30:55;98673.81;;;20.44;41.56
49297;BME280;35163;48.878;18.040;2022-07-11T10:33:29;98677.91;;;20.61;40.94
49297;BME280;35163;48.878;18.040;2022-07-11T10:35:57;98674.75;;;20.56;40.67
49297;BME280;35163;48.878;18.040;2022-07-11T10:38:24;98672.66;;;20.22;40.36
49297;BME280;35163;48.878;18.040;2022-07-11T10:46:21;98669.94;;;21.38;39.69
49297;BME280;35163;48.878;18.040;2022-07-11T11:00:32;98662.84;;;20.76;38.40
49297;BME280;35163;48.878;18.040;2022-07-11T11:03:06;98665.41;;;20.65;38.26
49297;BME280;35163;48.878;18.040;2022-07-11T11:05:50;98657.72;;;20.62;37.94
49297;BME280;35163;48.878;18.040;2022-07-11T11:11:03;98652.34;;;20.76;37.08
49297;BME280;35163;48.878;18.040;2022-07-11T11:13:32;98652.88;;;21.19;36.69
49297;BME280;35163;48.878;18.040;2022-07-11T11:16:17;98657.19;;;21.45;36.49
49297;BME280;35163;48.878;18.040;2022-07-11T11:18:45;98661.81;;;21.66;34.64
49297;BME280;35163;48.878;18.040;2022-07-11T11:21:13;98653.16;;;21.77;32.87
49297;BME280;35163;48.878;18.040;2022-07-11T11:23:42;98660.44;;;21.73;35.19
49297;BME280;35163;48.878;18.040;2022-07-11T11:26:16;98654.06;;;21.89;36.30
49297;BME280;35163;48.878;18.040;2022-07-11T11:28:58;98667.09;;;21.66;35.66
49297;BME280;35163;48.878;18.040;2022-07-11T11:31:26;98666.72;;;21.83;36.15
49297;BME280;35163;48.878;18.040;2022-07-11T11:33:53;98662.59;;;22.04;36.05
49297;BME280;35163;48.878;18.040;2022-07-11T11:36:21;98659.69;;;21.95;36.94
49297;BME280;35163;48.878;18.040;2022-07-11T11:38:48;98664.25;;;22.05;36.45
49297;BME280;35163;48.878;18.040;2022-07-11T11:41:26;98663.94;;;22.32;36.39
49297;BME280;35163;48.878;18.040;2022-07-11T11:43:55;98669.78;;;21.77;36.47
49297;BME280;35163;48.878;18.040;2022-07-11T11:46:24;98660.91;;;21.67;37.47
49297;BME280;35163;48.878;18.040;2022-07-11T11:48:55;98664.09;;;21.83;37.68
49297;BME280;35163;48.878;18.040;2022-07-11T11:51:22;98669.09;;;21.62;38.09
49297;BME280;35163;48.878;18.040;2022-07-11T11:53:52;98672.84;;;21.46;36.66
49297;BME280;35163;48.878;18.040;2022-07-11T11:56:33;98674.94;;;22.15;37.42
49297;BME280;35163;48.878;18.040;2022-07-11T12:01:37;98663.72;;;22.47;38.14
49297;BME280;35163;48.878;18.040;2022-07-11T12:04:06;98680.16;;;22.03;38.35
49297;BME280;35163;48.878;18.040;2022-07-11T12:06:38;98674.31;;;21.26;37.75
49297;BME280;35163;48.878;18.040;2022-07-11T12:11:37;98666.44;;;20.75;39.45
49297;BME280;35163;48.878;18.040;2022-07-11T12:14:06;98653.31;;;20.49;39.26
49297;BME280;35163;48.878;18.040;2022-07-11T12:16:34;98662.63;;;20.93;40.44
49297;BME280;35163;48.878;18.040;2022-07-11T12:19:23;98661.47;;;20.97;41.45
49297;BME280;35163;48.878;18.040;2022-07-11T12:21:51;98657.78;;;20.86;40.68
49297;BME280;35163;48.878;18.040;2022-07-11T12:24:24;98652.78;;;20.57;40.09
49297;BME280;35163;48.878;18.040;2022-07-11T12:26:55;98660.72;;;20.82;41.63
49297;BME280;35163;48.878;18.040;2022-07-11T12:29:23;98659.34;;;20.89;40.92
49297;BME280;35163;48.878;18.040;2022-07-11T12:32:10;98654.84;;;20.78;40.37
49297;BME280;35163;48.878;18.040;2022-07-11T12:37:10;98650.56;;;20.77;40.51
49297;BME280;35163;48.878;18.040;2022-07-11T12:39:52;98650.13;;;21.21;41.08
49297;BME280;35163;48.878;18.040;2022-07-11T12:42:28;98656.06;;;21.11;40.69
49297;BME280;35163;48.878;18.040;2022-07-11T12:45:08;98649.88;;;20.86;39.89
49297;BME280;35163;48.878;18.040;2022-07-11T12:47:41;98643.06;;;20.97;38.59
49297;BME280;35163;48.878;18.040;2022-07-11T12:50:16;98639.06;;;21.04;40.17
49297;BME280;35163;48.878;18.040;2022-07-11T12:52:45;98636.59;;;21.14;39.57
49297;BME280;35163;48.878;18.040;2022-07-11T12:58:04;98616.66;;;22.31;37.77
49297;BME280;35163;48.878;18.040;2022-07-11T13:00:36;98626.59;;;22.27;37.38
49297;BME280;35163;48.878;18.040;2022-07-11T13:03:06;98624.31;;;21.75;35.96
49297;BME280;35163;48.878;18.040;2022-07-11T13:05:56;98613.56;;;21.78;37.16
49297;BME280;35163;48.878;18.040;2022-07-11T13:11:18;98612.78;;;21.29;36.39
49297;BME280;35163;48.878;18.040;2022-07-11T13:13:51;98615.84;;;20.98;37.20
49297;BME280;35163;48.878;18.040;2022-07-11T13:16:18;98613.00;;;21.01;37.12
49297;BME280;35163;48.878;18.040;2022-07-11T13:18:46;98619.31;;;20.85;38.00
49297;BME280;35163;48.878;18.040;2022-07-11T13:21:14;98622.28;;;20.68;37.97
49297;BME280;35163;48.878;18.040;2022-07-11T13:23:40;98623.13;;;20.94;37.73
49297;BME280;35163;48.878;18.040;2022-07-11T13:26:08;98620.56;;;20.93;38.18
49297;BME280;35163;48.878;18.040;2022-07-11T13:28:36;98620.56;;;20.93;38.46
49297;BME280;35163;48.878;18.040;2022-07-11T13:31:03;98619.66;;;20.68;38.72
49297;BME280;35163;48.878;18.040;2022-07-11T13:33:41;98618.88;;;20.41;38.89
49297;BME280;35163;48.878;18.040;2022-07-11T13:36:09;98626.56;;;20.31;40.55
49297;BME280;35163;48.878;18.040;2022-07-11T13:38:35;98621.88;;;19.96;40.38
49297;BME280;35163;48.878;18.040;2022-07-11T13:41:02;98617.91;;;20.03;41.26